Time;durP1;ratioP1;P1;durP2;ratioP2;P2;SDS_P1;SDS_P2;PMS_P1;PMS_P2;Temp;Humidity;BMP_temperature;BMP_pressure;BME280_temperature;BME280_humidity;BME280_pressure;Samples;Min_cycle;Max_cycle;Signal;HPM_P1;HPM_P2
2024/01/29 00:07:16;;;;;;;;;;;-0.80;99.90;;;;;;20837791;28;19984;-78
2024/01/29 00:17:17;;;;;;;;;;;-0.80;99.90;;;;;;20844619;28;19920;-77
2024/01/29 00:27:18;;;;;;;;;;;-0.90;99.90;;;;;;20838331;28;20404;-77
2024/01/29 00:37:19;;;;;;;;;;;-0.90;99.90;;;;;;20813698;28;19917;-79
2024/01/29 00:47:20;;;;;;;;;;;-1.00;99.90;;;;;;20809052;28;19964;-78
2024/01/29 00:57:21;;;;;;;;;;;-1.00;99.90;;;;;;20832765;28;19913;-78
2024/01/29 01:07:21;;;;;;;;;;;-0.90;99.90;;;;;;20848189;28;19948;-79
2024/01/29 01:17:22;;;;;;;;;;;-1.00;99.90;;;;;;20839712;28;19963;-79
2024/01/29 01:27:23;;;;;;;;;;;-1.10;99.90;;;;;;20831179;28;19979;-77
2024/01/29 01:37:23;;;;;;;;;;;-1.10;99.90;;;;;;20838854;28;20334;-78
2024/01/29 01:47:24;;;;;;;;;;;-1.10;99.90;;;;;;20839995;28;19917;-78
2024/01/29 01:57:25;;;;;;;;;;;-1.10;99.90;;;;;;20847248;28;20396;-79
2024/01/29 02:07:25;;;;;;;;;;;-1.10;99.90;;;;;;20846152;28;19925;-78
2024/01/29 02:17:26;;;;;;;;;;;-1.10;99.90;;;;;;20827824;28;19913;-78
2024/01/29 02:27:27;;;;;;;;;;;-1.20;99.90;;;;;;20847930;28;19924;-77
2024/01/29 02:37:27;;;;;;;;;;;-1.20;99.90;;;;;;20807437;28;19924;-79
2024/01/29 02:47:28;;;;;;;;;;;-1.20;99.90;;;;;;20823331;28;19952;-77
2024/01/29 02:57:28;;;;;;;;;;;-1.20;99.90;;;;;;20850718;28;19913;-78
2024/01/29 03:07:29;;;;;;;;;;;-1.20;99.90;;;;;;20844834;28;19917;-77
2024/01/29 03:17:30;;;;;;;;;;;-1.20;99.90;;;;;;20856962;28;20008;-78
2024/01/29 03:27:31;;;;;;;;;;;-1.30;99.90;;;;;;20847473;28;19992;-79
2024/01/29 03:37:31;;;;;;;;;;;-1.20;99.90;;;;;;20851286;28;19917;-78
2024/01/29 03:47:32;;;;;;;;;;;-1.20;99.90;;;;;;20830630;28;20482;-79
2024/01/29 03:57:32;;;;;;;;;;;-1.20;99.90;;;;;;20826854;28;19929;-78
2024/01/29 04:07:33;;;;;;;;;;;-1.20;99.90;;;;;;20845120;28;20338;-79
2024/01/29 04:17:34;;;;;;;;;;;-1.20;99.90;;;;;;20848813;28;19927;-78
2024/01/29 04:27:34;;;;;;;;;;;-1.20;99.90;;;;;;20830943;28;20011;-78
2024/01/29 04:37:35;;;;;;;;;;;-1.30;99.90;;;;;;20821721;28;20298;-77
2024/01/29 04:47:36;;;;;;;;;;;-1.20;99.90;;;;;;20845859;28;19992;-77
2024/01/29 04:57:36;;;;;;;;;;;-1.20;99.90;;;;;;20847181;28;19914;-77
2024/01/29 05:07:37;;;;;;;;;;;-1.20;99.90;;;;;;20807831;28;19917;-78
2024/01/29 05:17:37;;;;;;;;;;;-1.20;99.90;;;;;;20814136;28;19917;-76
2024/01/29 05:27:38;;;;;;;;;;;-1.20;99.90;;;;;;20814438;28;19924;-77
2024/01/29 05:37:39;;;;;;;;;;;-1.10;99.90;;;;;;20832492;28;19918;-77
2024/01/29 05:47:39;;;;;;;;;;;-1.10;99.90;;;;;;20813486;28;19921;-77
2024/01/29 05:57:41;;;;;;;;;;;-1.10;99.90;;;;;;20798094;28;19936;-78
2024/01/29 06:07:41;;;;;;;;;;;-1.10;99.90;;;;;;20832555;28;19917;-77
2024/01/29 06:17:42;;;;;;;;;;;-1.20;99.90;;;;;;20826555;28;19932;-76
2024/01/29 06:27:43;;;;;;;;;;;-1.10;99.90;;;;;;20855490;28;19971;-76
2024/01/29 06:37:43;;;;;;;;;;;-1.10;99.90;;;;;;20829768;28;20288;-78
2024/01/29 06:47:44;;;;;;;;;;;-1.00;99.90;;;;;;20825355;28;19967;-77
2024/01/29 06:57:45;;;;;;;;;;;-1.00;99.90;;;;;;20812610;28;20431;-77
2024/01/29 07:07:45;;;;;;;;;;;-1.00;99.90;;;;;;20817355;28;19928;-77
2024/01/29 07:17:47;;;;;;;;;;;-0.90;99.90;;;;;;20813240;28;19980;-76
2024/01/29 07:27:47;;;;;;;;;;;-0.70;99.90;;;;;;20775288;28;19916;-77
2024/01/29 07:37:48;;;;;;;;;;;-0.80;99.90;;;;;;20847126;28;19924;-77
2024/01/29 07:47:48;;;;;;;;;;;-0.70;99.90;;;;;;20854581;28;19917;-79
2024/01/29 07:57:49;;;;;;;;;;;-0.60;99.90;;;;;;20854110;28;19913;-78
2024/01/29 08:07:50;;;;;;;;;;;-0.50;99.90;;;;;;20858608;28;20004;-78
2024/01/29 08:17:51;;;;;;;;;;;-0.30;99.90;;;;;;20846051;28;19920;-79
2024/01/29 08:27:52;;;;;;;;;;;-0.20;99.90;;;;;;20854251;28;19992;-79
2024/01/29 08:37:52;;;;;;;;;;;-0.40;99.90;;;;;;20852316;28;19940;-79
2024/01/29 08:47:53;;;;;;;;;;;-0.30;99.90;;;;;;20842170;28;19924;-78
2024/01/29 08:57:54;;;;;;;;;;;-0.20;99.90;;;;;;20844412;28;20011;-79
2024/01/29 09:07:54;;;;;;;;;;;0.00;99.90;;;;;;20842875;28;20372;-78
2024/01/29 09:17:55;;;;;;;;;;;-0.10;99.90;;;;;;20832390;28;19913;-77
2024/01/29 09:27:56;;;;;;;;;;;0.30;99.90;;;;;;20845917;28;20011;-79
2024/01/29 09:37:56;;;;;;;;;;;0.20;99.90;;;;;;20840366;28;20565;-79
2024/01/29 09:47:58;;;;;;;;;;;0.40;99.90;;;;;;20831749;28;20013;-76
2024/01/29 09:57:58;;;;;;;;;;;0.40;99.90;;;;;;20831071;28;19916;-77
2024/01/29 10:08:00;;;;;;;;;;;0.60;99.90;;;;;;20817885;28;19924;-78
2024/01/29 10:18:01;;;;;;;;;;;0.50;99.90;;;;;;20816390;28;19935;-78
2024/01/29 10:28:05;;;;;;;;;;;0.80;99.90;;;;;;20840965;28;20281;-78
2024/01/29 10:38:06;;;;;;;;;;;0.90;99.90;;;;;;20823784;28;19921;-80
2024/01/29 10:48:07;;;;;;;;;;;1.10;99.90;;;;;;20828507;28;20305;-79
2024/01/29 10:58:08;;;;;;;;;;;1.30;99.90;;;;;;20832695;28;20003;-79
2024/01/29 11:08:12;;;;;;;;;;;1.30;99.90;;;;;;20848070;28;19959;-78
2024/01/29 11:18:14;;;;;;;;;;;1.40;99.90;;;;;;20859863;28;19917;-80
2024/01/29 11:28:14;;;;;;;;;;;1.60;99.90;;;;;;20843392;28;19924;-79
2024/01/29 11:38:20;;;;;;;;;;;2.40;99.90;;;;;;20867596;28;20355;-80
2024/01/29 11:48:21;;;;;;;;;;;2.40;99.90;;;;;;20850439;28;20419;-79
2024/01/29 11:58:23;;;;;;;;;;;2.80;99.90;;;;;;20852322;28;19913;-81
2024/01/29 12:08:26;;;;;;;;;;;3.20;99.90;;;;;;20857184;28;19921;-78
2024/01/29 12:18:28;;;;;;;;;;;3.40;99.90;;;;;;20867737;28;19921;-81
2024/01/29 12:28:29;;;;;;;;;;;4.60;99.90;;;;;;20841068;28;19925;-79
2024/01/29 12:38:29;;;;;;;;;;;4.10;99.90;;;;;;20857308;28;20380;-81
2024/01/29 12:48:30;;;;;;;;;;;4.50;99.90;;;;;;20832080;28;19925;-80
2024/01/29 12:58:31;;;;;;;;;;;4.90;99.90;;;;;;20848647;28;20402;-80
2024/01/29 13:08:32;;;;;;;;;;;5.00;99.90;;;;;;20843467;28;19984;-78
2024/01/29 13:18:32;;;;;;;;;;;4.00;99.90;;;;;;20839940;28;19917;-78
2024/01/29 13:28:33;;;;;;;;;;;4.70;99.90;;;;;;20834635;28;19928;-79
2024/01/29 13:38:34;;;;;;;;;;;5.00;99.90;;;;;;20852056;28;19967;-79
2024/01/29 13:48:35;;;;;;;;;;;5.70;99.90;;;;;;20840510;28;20015;-77
2024/01/29 13:58:36;;;;;;;;;;;5.00;99.90;;;;;;20841486;28;19924;-79
2024/01/29 14:08:36;;;;;;;;;;;4.80;99.90;;;;;;20849559;28;19921;-80
2024/01/29 14:18:38;;;;;;;;;;;4.70;99.90;;;;;;20851105;28;19913;-79
2024/01/29 14:28:39;;;;;;;;;;;5.00;99.90;;;;;;20839711;28;19917;-80
2024/01/29 14:38:41;;;;;;;;;;;5.30;99.90;;;;;;20831602;28;19917;-80
2024/01/29 14:48:41;;;;;;;;;;;5.90;99.90;;;;;;20843017;28;20375;-80
2024/01/29 14:58:43;;;;;;;;;;;5.80;99.90;;;;;;20858293;28;19940;-80
2024/01/29 15:08:43;;;;;;;;;;;6.10;99.90;;;;;;20844944;28;19945;-81
2024/01/29 15:18:45;;;;;;;;;;;6.00;99.90;;;;;;20863692;28;19939;-79
2024/01/29 15:28:46;;;;;;;;;;;5.60;99.90;;;;;;20840077;28;19963;-79
2024/01/29 15:38:47;;;;;;;;;;;5.20;99.90;;;;;;20847926;28;20328;-78
2024/01/29 15:48:47;;;;;;;;;;;5.40;99.90;;;;;;20843716;28;19987;-78
2024/01/29 15:58:48;;;;;;;;;;;5.60;99.90;;;;;;20830734;28;19928;-80
2024/01/29 16:08:48;;;;;;;;;;;5.10;99.90;;;;;;20862126;28;19964;-80
2024/01/29 16:18:49;;;;;;;;;;;4.60;99.90;;;;;;20855199;28;19913;-80
2024/01/29 16:28:50;;;;;;;;;;;4.50;99.90;;;;;;20857235;28;19917;-80
2024/01/29 16:38:52;;;;;;;;;;;4.20;99.90;;;;;;20855467;28;19917;-80
2024/01/29 16:48:53;;;;;;;;;;;4.20;99.90;;;;;;20860015;28;19916;-79
2024/01/29 16:58:57;;;;;;;;;;;4.10;99.90;;;;;;20860480;28;21655;-79
2024/01/29 17:08:57;;;;;;;;;;;3.90;99.90;;;;;;20855484;28;19924;-80
2024/01/29 17:18:58;;;;;;;;;;;3.70;99.90;;;;;;20857361;28;20008;-80
2024/01/29 17:28:59;;;;;;;;;;;3.60;99.90;;;;;;20860627;28;19984;-80
2024/01/29 17:39:00;;;;;;;;;;;3.40;99.90;;;;;;20832265;28;19917;-78
2024/01/29 17:49:00;;;;;;;;;;;3.00;99.90;;;;;;20846713;28;19917;-79
2024/01/29 17:59:01;;;;;;;;;;;3.00;99.90;;;;;;20845225;28;19935;-80
2024/01/29 18:09:02;;;;;;;;;;;3.10;99.90;;;;;;20856489;28;20347;-80
2024/01/29 18:19:02;;;;;;;;;;;3.20;99.90;;;;;;20848787;28;19974;-78
2024/01/29 18:29:03;;;;;;;;;;;3.10;99.90;;;;;;20839455;28;20364;-78
2024/01/29 18:39:04;;;;;;;;;;;2.70;99.90;;;;;;20826793;28;19928;-78
2024/01/29 18:49:04;;;;;;;;;;;2.60;99.90;;;;;;20833083;28;19920;-79
2024/01/29 18:59:05;;;;;;;;;;;2.50;99.90;;;;;;20839252;28;20344;-79
2024/01/29 19:09:07;;;;;;;;;;;2.40;99.90;;;;;;20839041;28;19918;-79
2024/01/29 19:19:08;;;;;;;;;;;2.50;99.90;;;;;;20841492;28;19921;-79
2024/01/29 19:29:11;;;;;;;;;;;2.70;99.90;;;;;;20832884;28;19961;-79
2024/01/29 19:39:12;;;;;;;;;;;2.60;99.90;;;;;;20844650;28;20431;-80
2024/01/29 19:49:13;;;;;;;;;;;2.70;99.90;;;;;;20853332;28;19916;-79
2024/01/29 19:59:16;;;;;;;;;;;2.70;99.90;;;;;;20860224;28;19917;-80
2024/01/29 20:09:17;;;;;;;;;;;2.70;99.90;;;;;;20860549;28;20297;-78
2024/01/29 20:19:17;;;;;;;;;;;2.90;99.90;;;;;;20832277;28;19945;-78
2024/01/29 20:29:18;;;;;;;;;;;2.70;99.90;;;;;;20850581;28;19917;-79
2024/01/29 20:39:19;;;;;;;;;;;2.60;99.90;;;;;;20876861;28;19925;-79
2024/01/29 20:49:19;;;;;;;;;;;2.60;99.90;;;;;;20873775;28;19972;-77
2024/01/29 20:59:20;;;;;;;;;;;2.40;99.90;;;;;;20876159;28;19921;-80
2024/01/29 21:09:21;;;;;;;;;;;2.10;99.90;;;;;;20872730;28;19928;-80
2024/01/29 21:19:21;;;;;;;;;;;2.30;99.90;;;;;;20853065;28;19913;-80
2024/01/29 21:29:22;;;;;;;;;;;2.30;99.90;;;;;;20829660;28;20303;-80
2024/01/29 21:39:22;;;;;;;;;;;2.20;99.90;;;;;;20848410;28;19959;-80
2024/01/29 21:49:23;;;;;;;;;;;2.10;99.90;;;;;;20847704;28;19932;-79
2024/01/29 21:59:24;;;;;;;;;;;1.90;99.90;;;;;;20847684;28;20423;-79
2024/01/29 22:09:24;;;;;;;;;;;1.80;99.90;;;;;;20846050;28;19921;-78
2024/01/29 22:19:25;;;;;;;;;;;1.70;99.90;;;;;;20830075;28;19913;-79
2024/01/29 22:29:26;;;;;;;;;;;1.70;99.90;;;;;;20836973;28;19917;-79
2024/01/29 22:39:26;;;;;;;;;;;1.80;99.90;;;;;;20861686;28;19952;-79
2024/01/29 22:49:27;;;;;;;;;;;1.90;99.90;;;;;;20861262;28;19917;-79
2024/01/29 22:59:27;;;;;;;;;;;1.70;99.90;;;;;;20862003;28;19913;-79
2024/01/29 23:09:28;;;;;;;;;;;1.60;99.90;;;;;;20871962;28;19924;-79
2024/01/29 23:19:29;;;;;;;;;;;1.50;99.90;;;;;;20854549;28;20448;-78
2024/01/29 23:29:29;;;;;;;;;;;1.30;99.90;;;;;;20859650;28;19917;-78
2024/01/29 23:39:30;;;;;;;;;;;1.20;99.90;;;;;;20858662;28;20376;-79
2024/01/29 23:49:31;;;;;;;;;;;1.10;99.90;;;;;;20863061;28;20564;-78
2024/01/29 23:59:31;;;;;;;;;;;1.00;99.90;;;;;;20859927;28;19920;-78
